sensor_id;sensor_type;location;lat;lon;timestamp;temperature;humidity
51011;DHT22;37038;50.182;8.624;2023-06-05T00:02:24;15.00;6.90
51011;DHT22;37038;50.182;8.624;2023-06-05T00:05:13;15.00;6.60
51011;DHT22;37038;50.182;8.624;2023-06-05T00:08:02;15.10;6.80
51011;DHT22;37038;50.182;8.624;2023-06-05T00:10:50;15.10;6.60
51011;DHT22;37038;50.182;8.624;2023-06-05T00:13:38;14.80;7.60
51011;DHT22;37038;50.182;8.624;2023-06-05T00:16:25;14.90;7.20
51011;DHT22;37038;50.182;8.624;2023-06-05T00:19:13;15.00;6.50
51011;DHT22;37038;50.182;8.624;2023-06-05T00:22:01;15.00;7.00
51011;DHT22;37038;50.182;8.624;2023-06-05T00:24:48;14.90;7.30
51011;DHT22;37038;50.182;8.624;2023-06-05T00:27:36;14.90;7.10
51011;DHT22;37038;50.182;8.624;2023-06-05T00:30:24;14.90;7.30
51011;DHT22;37038;50.182;8.624;2023-06-05T00:33:11;14.80;7.20
51011;DHT22;37038;50.182;8.624;2023-06-05T00:35:59;14.80;7.50
51011;DHT22;37038;50.182;8.624;2023-06-05T00:38:47;14.70;7.60
51011;DHT22;37038;50.182;8.624;2023-06-05T00:41:36;14.80;7.70
51011;DHT22;37038;50.182;8.624;2023-06-05T00:44:25;14.70;8.10
51011;DHT22;37038;50.182;8.624;2023-06-05T00:47:12;14.50;8.80
51011;DHT22;37038;50.182;8.624;2023-06-05T00:50:00;14.40;8.70
51011;DHT22;37038;50.182;8.624;2023-06-05T00:52:52;14.40;9.50
51011;DHT22;37038;50.182;8.624;2023-06-05T00:55:41;14.30;9.90
51011;DHT22;37038;50.182;8.624;2023-06-05T00:58:30;14.20;10.00
51011;DHT22;37038;50.182;8.624;2023-06-05T01:01:20;14.10;10.40
51011;DHT22;37038;50.182;8.624;2023-06-05T01:04:08;14.10;10.70
51011;DHT22;37038;50.182;8.624;2023-06-05T01:06:56;14.10;10.20
51011;DHT22;37038;50.182;8.624;2023-06-05T01:09:48;14.10;10.70
51011;DHT22;37038;50.182;8.624;2023-06-05T01:15:46;14.30;9.50
51011;DHT22;37038;50.182;8.624;2023-06-05T01:18:37;14.10;10.00
51011;DHT22;37038;50.182;8.624;2023-06-05T01:21:29;14.20;10.20
51011;DHT22;37038;50.182;8.624;2023-06-05T01:24:18;14.10;10.80
51011;DHT22;37038;50.182;8.624;2023-06-05T01:35:50;14.00;11.40
51011;DHT22;37038;50.182;8.624;2023-06-05T01:38:41;13.90;11.30
51011;DHT22;37038;50.182;8.624;2023-06-05T01:41:30;14.00;11.20
51011;DHT22;37038;50.182;8.624;2023-06-05T01:44:18;14.10;11.00
51011;DHT22;37038;50.182;8.624;2023-06-05T01:47:06;14.00;11.20
51011;DHT22;37038;50.182;8.624;2023-06-05T01:49:55;14.10;11.50
51011;DHT22;37038;50.182;8.624;2023-06-05T01:52:43;13.90;12.30
51011;DHT22;37038;50.182;8.624;2023-06-05T01:55:32;13.90;13.00
51011;DHT22;37038;50.182;8.624;2023-06-05T01:58:21;13.90;13.50
51011;DHT22;37038;50.182;8.624;2023-06-05T02:01:09;13.80;14.60
51011;DHT22;37038;50.182;8.624;2023-06-05T02:03:56;13.60;15.40
51011;DHT22;37038;50.182;8.624;2023-06-05T02:06:45;13.60;16.50
51011;DHT22;37038;50.182;8.624;2023-06-05T02:09:33;13.60;17.00
51011;DHT22;37038;50.182;8.624;2023-06-05T02:12:21;13.40;18.10
51011;DHT22;37038;50.182;8.624;2023-06-05T02:15:14;13.20;19.10
51011;DHT22;37038;50.182;8.624;2023-06-05T02:18:03;13.10;20.90
51011;DHT22;37038;50.182;8.624;2023-06-05T02:20:55;13.10;21.90
51011;DHT22;37038;50.182;8.624;2023-06-05T02:23:43;13.00;23.10
51011;DHT22;37038;50.182;8.624;2023-06-05T02:26:31;12.90;24.10
51011;DHT22;37038;50.182;8.624;2023-06-05T02:29:19;12.90;25.50
51011;DHT22;37038;50.182;8.624;2023-06-05T02:32:07;12.90;27.90
51011;DHT22;37038;50.182;8.624;2023-06-05T02:34:56;12.80;28.30
51011;DHT22;37038;50.182;8.624;2023-06-05T02:37:46;12.80;29.60
51011;DHT22;37038;50.182;8.624;2023-06-05T02:40:34;13.00;29.80
51011;DHT22;37038;50.182;8.624;2023-06-05T02:43:22;13.00;30.00
51011;DHT22;37038;50.182;8.624;2023-06-05T02:46:11;12.90;31.80
51011;DHT22;37038;50.182;8.624;2023-06-05T02:48:59;12.90;33.50
51011;DHT22;37038;50.182;8.624;2023-06-05T02:51:47;12.60;37.00
51011;DHT22;37038;50.182;8.624;2023-06-05T02:54:35;12.50;38.50
51011;DHT22;37038;50.182;8.624;2023-06-05T02:57:22;12.60;38.20
51011;DHT22;37038;50.182;8.624;2023-06-05T03:00:11;12.50;40.20
51011;DHT22;37038;50.182;8.624;2023-06-05T03:03:03;12.30;43.50
51011;DHT22;37038;50.182;8.624;2023-06-05T03:05:53;12.20;46.60
51011;DHT22;37038;50.182;8.624;2023-06-05T03:08:44;12.30;46.80
51011;DHT22;37038;50.182;8.624;2023-06-05T03:11:32;12.30;47.70
51011;DHT22;37038;50.182;8.624;2023-06-05T03:14:20;12.00;52.60
51011;DHT22;37038;50.182;8.624;2023-06-05T03:17:08;11.80;57.20
51011;DHT22;37038;50.182;8.624;2023-06-05T03:19:55;11.60;61.40
51011;DHT22;37038;50.182;8.624;2023-06-05T03:22:43;11.60;63.60
51011;DHT22;37038;50.182;8.624;2023-06-05T03:25:32;11.50;66.40
51011;DHT22;37038;50.182;8.624;2023-06-05T03:28:23;11.80;67.90
51011;DHT22;37038;50.182;8.624;2023-06-05T03:31:11;11.80;67.90
51011;DHT22;37038;50.182;8.624;2023-06-05T03:33:59;11.90;66.70
51011;DHT22;37038;50.182;8.624;2023-06-05T03:36:47;12.00;66.40
51011;DHT22;37038;50.182;8.624;2023-06-05T03:39:36;12.00;67.70
51011;DHT22;37038;50.182;8.624;2023-06-05T03:42:27;12.20;67.00
51011;DHT22;37038;50.182;8.624;2023-06-05T03:45:14;12.30;66.40
51011;DHT22;37038;50.182;8.624;2023-06-05T03:48:03;12.20;67.10
51011;DHT22;37038;50.182;8.624;2023-06-05T03:50:51;12.30;67.60
51011;DHT22;37038;50.182;8.624;2023-06-05T03:53:40;12.50;65.30
51011;DHT22;37038;50.182;8.624;2023-06-05T03:56:31;12.50;68.10
51011;DHT22;37038;50.182;8.624;2023-06-05T03:59:22;12.60;66.10
51011;DHT22;37038;50.182;8.624;2023-06-05T04:02:11;12.70;64.80
51011;DHT22;37038;50.182;8.624;2023-06-05T04:04:59;12.70;63.10
51011;DHT22;37038;50.182;8.624;2023-06-05T04:07:48;12.90;62.50
51011;DHT22;37038;50.182;8.624;2023-06-05T04:10:37;13.00;61.10
51011;DHT22;37038;50.182;8.624;2023-06-05T04:13:28;13.50;59.40
51011;DHT22;37038;50.182;8.624;2023-06-05T04:16:17;14.30;54.80
51011;DHT22;37038;50.182;8.624;2023-06-05T04:19:06;14.90;50.20
51011;DHT22;37038;50.182;8.624;2023-06-05T04:21:56;15.50;46.50
51011;DHT22;37038;50.182;8.624;2023-06-05T04:24:44;15.90;43.40
51011;DHT22;37038;50.182;8.624;2023-06-05T04:27:32;16.50;42.20
51011;DHT22;37038;50.182;8.624;2023-06-05T04:30:20;16.90;38.90
51011;DHT22;37038;50.182;8.624;2023-06-05T04:33:08;17.30;36.40
51011;DHT22;37038;50.182;8.624;2023-06-05T04:35:56;17.60;34.50
51011;DHT22;37038;50.182;8.624;2023-06-05T04:38:47;17.50;33.40
51011;DHT22;37038;50.182;8.624;2023-06-05T04:41:36;16.70;35.90
51011;DHT22;37038;50.182;8.624;2023-06-05T04:44:24;16.20;37.10
51011;DHT22;37038;50.182;8.624;2023-06-05T04:47:12;15.90;39.70
51011;DHT22;37038;50.182;8.624;2023-06-05T04:50:02;15.80;40.40
51011;DHT22;37038;50.182;8.624;2023-06-05T04:52:54;15.70;41.30
51011;DHT22;37038;50.182;8.624;2023-06-05T04:55:42;15.70;41.90
51011;DHT22;37038;50.182;8.624;2023-06-05T04:58:32;15.60;42.80
51011;DHT22;37038;50.182;8.624;2023-06-05T05:01:23;15.70;44.10
51011;DHT22;37038;50.182;8.624;2023-06-05T05:04:12;15.60;43.00
51011;DHT22;37038;50.182;8.624;2023-06-05T05:06:59;15.90;42.90
51011;DHT22;37038;50.182;8.624;2023-06-05T05:09:48;17.00;41.30
51011;DHT22;37038;50.182;8.624;2023-06-05T05:12:36;18.10;37.40
51011;DHT22;37038;50.182;8.624;2023-06-05T05:15:25;18.80;34.20
51011;DHT22;37038;50.182;8.624;2023-06-05T05:18:14;19.70;32.30
51011;DHT22;37038;50.182;8.624;2023-06-05T05:21:01;20.50;29.20
51011;DHT22;37038;50.182;8.624;2023-06-05T05:23:53;20.80;26.70
51011;DHT22;37038;50.182;8.624;2023-06-05T05:26:41;21.40;25.70
51011;DHT22;37038;50.182;8.624;2023-06-05T05:29:29;22.00;24.40
51011;DHT22;37038;50.182;8.624;2023-06-05T05:32:17;22.70;21.30
51011;DHT22;37038;50.182;8.624;2023-06-05T05:35:05;22.70;21.80
51011;DHT22;37038;50.182;8.624;2023-06-05T05:37:55;22.80;19.90
51011;DHT22;37038;50.182;8.624;2023-06-05T05:40:45;22.90;19.60
51011;DHT22;37038;50.182;8.624;2023-06-05T05:43:44;22.90;18.70
51011;DHT22;37038;50.182;8.624;2023-06-05T05:46:36;23.20;18.00
51011;DHT22;37038;50.182;8.624;2023-06-05T05:49:26;23.60;17.90
51011;DHT22;37038;50.182;8.624;2023-06-05T05:52:29;24.30;16.90
51011;DHT22;37038;50.182;8.624;2023-06-05T05:55:21;25.10;15.80
51011;DHT22;37038;50.182;8.624;2023-06-05T05:58:19;25.70;14.50
51011;DHT22;37038;50.182;8.624;2023-06-05T06:01:12;25.70;12.20
51011;DHT22;37038;50.182;8.624;2023-06-05T06:04:06;26.10;12.60
51011;DHT22;37038;50.182;8.624;2023-06-05T06:06:54;25.90;11.80
51011;DHT22;37038;50.182;8.624;2023-06-05T06:09:50;25.70;12.20
51011;DHT22;37038;50.182;8.624;2023-06-05T06:12:43;26.20;11.30
51011;DHT22;37038;50.182;8.624;2023-06-05T06:15:35;26.10;10.10
51011;DHT22;37038;50.182;8.624;2023-06-05T06:18:29;25.90;9.80
51011;DHT22;37038;50.182;8.624;2023-06-05T06:21:26;26.00;10.50
51011;DHT22;37038;50.182;8.624;2023-06-05T06:24:29;26.40;9.40
51011;DHT22;37038;50.182;8.624;2023-06-05T06:27:21;27.10;9.80
51011;DHT22;37038;50.182;8.624;2023-06-05T06:30:25;27.40;8.00
51011;DHT22;37038;50.182;8.624;2023-06-05T06:33:20;27.50;8.30
51011;DHT22;37038;50.182;8.624;2023-06-05T06:36:26;27.90;6.30
51011;DHT22;37038;50.182;8.624;2023-06-05T06:39:23;28.70;6.40
51011;DHT22;37038;50.182;8.624;2023-06-05T06:42:19;28.20;5.30
51011;DHT22;37038;50.182;8.624;2023-06-05T06:45:11;27.90;5.20
51011;DHT22;37038;50.182;8.624;2023-06-05T06:48:02;28.40;4.50
51011;DHT22;37038;50.182;8.624;2023-06-05T06:51:04;27.90;5.10
51011;DHT22;37038;50.182;8.624;2023-06-05T06:53:54;28.20;5.20
51011;DHT22;37038;50.182;8.624;2023-06-05T06:56:49;27.70;2.40
51011;DHT22;37038;50.182;8.624;2023-06-05T06:59:42;27.70;3.50
51011;DHT22;37038;50.182;8.624;2023-06-05T07:02:35;27.70;2.80
51011;DHT22;37038;50.182;8.624;2023-06-05T07:05:31;27.70;1.00
51011;DHT22;37038;50.182;8.624;2023-06-05T07:08:22;27.90;1.00
51011;DHT22;37038;50.182;8.624;2023-06-05T07:11:13;28.50;1.00
51011;DHT22;37038;50.182;8.624;2023-06-05T07:14:07;28.80;1.00
51011;DHT22;37038;50.182;8.624;2023-06-05T07:16:57;28.50;1.00
51011;DHT22;37038;50.182;8.624;2023-06-05T07:19:52;28.80;1.00
51011;DHT22;37038;50.182;8.624;2023-06-05T07:22:44;29.40;1.00
51011;DHT22;37038;50.182;8.624;2023-06-05T07:25:40;28.60;1.00
51011;DHT22;37038;50.182;8.624;2023-06-05T07:28:34;28.50;1.00
51011;DHT22;37038;50.182;8.624;2023-06-05T07:31:26;29.50;1.00
51011;DHT22;37038;50.182;8.624;2023-06-05T07:34:22;29.30;1.00
51011;DHT22;37038;50.182;8.624;2023-06-05T07:37:13;29.70;1.00
51011;DHT22;37038;50.182;8.624;2023-06-05T07:40:02;30.00;1.00
51011;DHT22;37038;50.182;8.624;2023-06-05T07:42:54;30.50;1.00
51011;DHT22;37038;50.182;8.624;2023-06-05T07:45:47;31.10;1.00
51011;DHT22;37038;50.182;8.624;2023-06-05T07:48:41;30.70;1.00
51011;DHT22;37038;50.182;8.624;2023-06-05T07:51:29;31.70;1.00
51011;DHT22;37038;50.182;8.624;2023-06-05T07:54:25;31.10;1.00
51011;DHT22;37038;50.182;8.624;2023-06-05T07:57:17;30.90;1.00
51011;DHT22;37038;50.182;8.624;2023-06-05T08:00:11;29.80;1.00
51011;DHT22;37038;50.182;8.624;2023-06-05T08:03:07;29.80;1.00
51011;DHT22;37038;50.182;8.624;2023-06-05T08:06:01;30.30;1.00
51011;DHT22;37038;50.182;8.624;2023-06-05T08:08:55;30.70;1.00
51011;DHT22;37038;50.182;8.624;2023-06-05T08:11:48;31.20;1.00
51011;DHT22;37038;50.182;8.624;2023-06-05T08:14:38;31.50;1.00
51011;DHT22;37038;50.182;8.624;2023-06-05T08:17:30;31.40;1.00
51011;DHT22;37038;50.182;8.624;2023-06-05T08:20:22;32.70;1.00
51011;DHT22;37038;50.182;8.624;2023-06-05T08:23:18;33.60;1.00
51011;DHT22;37038;50.182;8.624;2023-06-05T08:26:07;32.20;1.00
51011;DHT22;37038;50.182;8.624;2023-06-05T08:29:02;32.50;1.00
51011;DHT22;37038;50.182;8.624;2023-06-05T08:31:54;32.40;1.00
51011;DHT22;37038;50.182;8.624;2023-06-05T08:34:52;33.40;1.00
51011;DHT22;37038;50.182;8.624;2023-06-05T08:37:51;32.90;1.00
51011;DHT22;37038;50.182;8.624;2023-06-05T08:40:41;33.20;1.00
51011;DHT22;37038;50.182;8.624;2023-06-05T08:43:36;32.60;1.00
51011;DHT22;37038;50.182;8.624;2023-06-05T08:46:30;32.60;1.00
51011;DHT22;37038;50.182;8.624;2023-06-05T08:49:24;33.00;1.00
51011;DHT22;37038;50.182;8.624;2023-06-05T08:52:16;33.40;1.00
51011;DHT22;37038;50.182;8.624;2023-06-05T08:55:09;32.50;1.00
51011;DHT22;37038;50.182;8.624;2023-06-05T08:58:03;33.20;1.00
51011;DHT22;37038;50.182;8.624;2023-06-05T09:00:56;33.30;1.00
51011;DHT22;37038;50.182;8.624;2023-06-05T09:03:46;33.20;1.00
51011;DHT22;37038;50.182;8.624;2023-06-05T09:06:36;33.30;1.00
51011;DHT22;37038;50.182;8.624;2023-06-05T09:09:29;33.10;1.00
51011;DHT22;37038;50.182;8.624;2023-06-05T09:12:19;33.20;1.00
51011;DHT22;37038;50.182;8.624;2023-06-05T09:15:28;33.30;1.00
51011;DHT22;37038;50.182;8.624;2023-06-05T09:18:23;34.50;1.00
51011;DHT22;37038;50.182;8.624;2023-06-05T09:21:16;33.80;1.00
51011;DHT22;37038;50.182;8.624;2023-06-05T09:24:14;33.50;1.00
51011;DHT22;37038;50.182;8.624;2023-06-05T09:27:09;32.90;1.00
51011;DHT22;37038;50.182;8.624;2023-06-05T09:30:10;33.20;1.00
51011;DHT22;37038;50.182;8.624;2023-06-05T09:33:12;34.00;1.00
51011;DHT22;37038;50.182;8.624;2023-06-05T09:36:12;35.10;1.00
51011;DHT22;37038;50.182;8.624;2023-06-05T09:39:19;34.40;1.00
51011;DHT22;37038;50.182;8.624;2023-06-05T09:42:16;34.90;1.00
51011;DHT22;37038;50.182;8.624;2023-06-05T09:45:23;35.20;1.00
51011;DHT22;37038;50.182;8.624;2023-06-05T09:48:32;34.30;1.00
51011;DHT22;37038;50.182;8.624;2023-06-05T09:51:24;33.20;1.00
51011;DHT22;37038;50.182;8.624;2023-06-05T09:54:15;33.90;1.00
51011;DHT22;37038;50.182;8.624;2023-06-05T09:57:14;33.80;1.00
51011;DHT22;37038;50.182;8.624;2023-06-05T10:00:06;34.10;1.00
51011;DHT22;37038;50.182;8.624;2023-06-05T10:02:57;34.80;1.00
51011;DHT22;37038;50.182;8.624;2023-06-05T10:05:50;34.40;1.00
51011;DHT22;37038;50.182;8.624;2023-06-05T10:08:54;34.00;1.00
51011;DHT22;37038;50.182;8.624;2023-06-05T10:11:55;34.00;1.00
51011;DHT22;37038;50.182;8.624;2023-06-05T10:14:51;34.00;1.00
51011;DHT22;37038;50.182;8.624;2023-06-05T10:18:03;33.90;1.00
51011;DHT22;37038;50.182;8.624;2023-06-05T10:21:34;34.30;1.00
51011;DHT22;37038;50.182;8.624;2023-06-05T10:24:31;35.00;1.00
51011;DHT22;37038;50.182;8.624;2023-06-05T10:39:55;34.80;1.00
51011;DHT22;37038;50.182;8.624;2023-06-05T10:42:46;33.90;1.00
51011;DHT22;37038;50.182;8.624;2023-06-05T10:45:35;33.60;1.00
51011;DHT22;37038;50.182;8.624;2023-06-05T10:51:54;32.30;1.00
51011;DHT22;37038;50.182;8.624;2023-06-05T10:58:12;33.40;1.00
51011;DHT22;37038;50.182;8.624;2023-06-05T11:01:17;34.80;1.00
51011;DHT22;37038;50.182;8.624;2023-06-05T11:04:09;36.50;1.00
51011;DHT22;37038;50.182;8.624;2023-06-05T11:10:09;35.90;1.00
51011;DHT22;37038;50.182;8.624;2023-06-05T11:12:58;35.50;1.00
51011;DHT22;37038;50.182;8.624;2023-06-05T11:15:50;36.10;1.00
51011;DHT22;37038;50.182;8.624;2023-06-05T11:18:44;35.80;1.00
51011;DHT22;37038;50.182;8.624;2023-06-05T11:22:02;35.30;1.00
51011;DHT22;37038;50.182;8.624;2023-06-05T11:28:11;37.00;1.00
51011;DHT22;37038;50.182;8.624;2023-06-05T11:31:02;37.60;1.00
51011;DHT22;37038;50.182;8.624;2023-06-05T11:33:52;36.60;1.00
51011;DHT22;37038;50.182;8.624;2023-06-05T11:36:43;36.10;1.00
51011;DHT22;37038;50.182;8.624;2023-06-05T11:39:43;34.20;1.00
51011;DHT22;37038;50.182;8.624;2023-06-05T11:42:36;34.00;1.00
51011;DHT22;37038;50.182;8.624;2023-06-05T11:45:29;34.70;1.00
51011;DHT22;37038;50.182;8.624;2023-06-05T11:48:24;35.40;1.00
51011;DHT22;37038;50.182;8.624;2023-06-05T11:51:17;36.60;1.00
51011;DHT22;37038;50.182;8.624;2023-06-05T11:54:09;36.80;1.00
51011;DHT22;37038;50.182;8.624;2023-06-05T11:57:03;37.90;1.00
51011;DHT22;37038;50.182;8.624;2023-06-05T12:00:01;37.40;1.00
51011;DHT22;37038;50.182;8.624;2023-06-05T12:02:57;37.40;1.00
51011;DHT22;37038;50.182;8.624;2023-06-05T12:05:57;37.30;1.00
51011;DHT22;37038;50.182;8.624;2023-06-05T12:08:49;38.20;1.00
51011;DHT22;37038;50.182;8.624;2023-06-05T12:11:38;36.90;1.00
51011;DHT22;37038;50.182;8.624;2023-06-05T12:14:32;35.60;1.00
51011;DHT22;37038;50.182;8.624;2023-06-05T12:17:25;35.80;1.00
51011;DHT22;37038;50.182;8.624;2023-06-05T12:20:15;36.40;1.00
51011;DHT22;37038;50.182;8.624;2023-06-05T12:23:04;36.60;1.00
51011;DHT22;37038;50.182;8.624;2023-06-05T12:26:03;35.20;1.00
51011;DHT22;37038;50.182;8.624;2023-06-05T12:29:05;35.60;1.00
51011;DHT22;37038;50.182;8.624;2023-06-05T12:31:58;35.40;1.00
51011;DHT22;37038;50.182;8.624;2023-06-05T12:34:52;36.30;1.00
51011;DHT22;37038;50.182;8.624;2023-06-05T12:38:02;35.90;1.00
51011;DHT22;37038;50.182;8.624;2023-06-05T12:40:53;35.70;1.00
51011;DHT22;37038;50.182;8.624;2023-06-05T12:44:05;35.80;1.00
51011;DHT22;37038;50.182;8.624;2023-06-05T12:46:56;36.10;1.00
51011;DHT22;37038;50.182;8.624;2023-06-05T12:49:47;35.60;1.00
51011;DHT22;37038;50.182;8.624;2023-06-05T12:52:40;35.70;1.00
51011;DHT22;37038;50.182;8.624;2023-06-05T12:55:31;35.90;1.00
51011;DHT22;37038;50.182;8.624;2023-06-05T12:58:30;35.70;1.00
51011;DHT22;37038;50.182;8.624;2023-06-05T13:01:27;36.30;1.00
51011;DHT22;37038;50.182;8.624;2023-06-05T13:04:23;35.90;1.00
51011;DHT22;37038;50.182;8.624;2023-06-05T13:07:24;36.00;1.00
51011;DHT22;37038;50.182;8.624;2023-06-05T13:10:22;35.60;1.00
51011;DHT22;37038;50.182;8.624;2023-06-05T13:13:28;34.90;1.00
51011;DHT22;37038;50.182;8.624;2023-06-05T13:16:23;34.80;1.00
51011;DHT22;37038;50.182;8.624;2023-06-05T13:19:13;35.10;1.00
51011;DHT22;37038;50.182;8.624;2023-06-05T13:22:03;36.80;1.00
51011;DHT22;37038;50.182;8.624;2023-06-05T13:24:52;37.20;1.00
51011;DHT22;37038;50.182;8.624;2023-06-05T13:27:42;36.90;1.00
51011;DHT22;37038;50.182;8.624;2023-06-05T13:30:32;37.20;1.00
51011;DHT22;37038;50.182;8.624;2023-06-05T13:33:20;37.40;1.00
51011;DHT22;37038;50.182;8.624;2023-06-05T13:36:09;36.70;1.00
51011;DHT22;37038;50.182;8.624;2023-06-05T13:39:03;37.30;1.00
51011;DHT22;37038;50.182;8.624;2023-06-05T13:41:55;37.20;1.00
51011;DHT22;37038;50.182;8.624;2023-06-05T13:44:45;37.50;1.00
51011;DHT22;37038;50.182;8.624;2023-06-05T13:47:34;37.10;1.00
51011;DHT22;37038;50.182;8.624;2023-06-05T13:50:27;37.00;1.00
51011;DHT22;37038;50.182;8.624;2023-06-05T13:53:18;37.40;1.00
51011;DHT22;37038;50.182;8.624;2023-06-05T13:56:08;37.60;1.00
51011;DHT22;37038;50.182;8.624;2023-06-05T13:59:00;37.70;1.00
51011;DHT22;37038;50.182;8.624;2023-06-05T14:01:50;36.80;1.00
51011;DHT22;37038;50.182;8.624;2023-06-05T14:04:40;36.10;1.00
51011;DHT22;37038;50.182;8.624;2023-06-05T14:07:30;35.20;1.00
51011;DHT22;37038;50.182;8.624;2023-06-05T14:10:39;35.10;1.00
51011;DHT22;37038;50.182;8.624;2023-06-05T14:13:31;35.10;1.00
51011;DHT22;37038;50.182;8.624;2023-06-05T14:16:26;34.80;1.00
51011;DHT22;37038;50.182;8.624;2023-06-05T14:19:17;35.10;1.00
51011;DHT22;37038;50.182;8.624;2023-06-05T14:22:11;35.10;1.00
51011;DHT22;37038;50.182;8.624;2023-06-05T14:25:05;35.40;1.00
51011;DHT22;37038;50.182;8.624;2023-06-05T14:27:57;35.20;1.00
51011;DHT22;37038;50.182;8.624;2023-06-05T14:30:50;36.00;1.00
51011;DHT22;37038;50.182;8.624;2023-06-05T14:33:41;35.70;1.00
51011;DHT22;37038;50.182;8.624;2023-06-05T14:36:38;36.40;1.00
51011;DHT22;37038;50.182;8.624;2023-06-05T14:39:32;36.60;1.00
51011;DHT22;37038;50.182;8.624;2023-06-05T14:42:21;36.40;1.00
51011;DHT22;37038;50.182;8.624;2023-06-05T14:45:12;36.30;1.00
51011;DHT22;37038;50.182;8.624;2023-06-05T14:48:06;34.60;1.00
51011;DHT22;37038;50.182;8.624;2023-06-05T14:51:02;33.70;1.00
51011;DHT22;37038;50.182;8.624;2023-06-05T14:53:52;34.30;1.00
51011;DHT22;37038;50.182;8.624;2023-06-05T14:56:44;35.70;1.00
51011;DHT22;37038;50.182;8.624;2023-06-05T14:59:35;35.70;1.00
51011;DHT22;37038;50.182;8.624;2023-06-05T15:02:25;35.40;1.00
51011;DHT22;37038;50.182;8.624;2023-06-05T15:05:17;35.30;1.00
51011;DHT22;37038;50.182;8.624;2023-06-05T15:08:06;35.00;1.00
51011;DHT22;37038;50.182;8.624;2023-06-05T15:11:00;34.60;1.00
51011;DHT22;37038;50.182;8.624;2023-06-05T15:13:55;34.60;1.00
51011;DHT22;37038;50.182;8.624;2023-06-05T15:16:47;34.40;1.00
51011;DHT22;37038;50.182;8.624;2023-06-05T15:19:41;34.20;1.00
51011;DHT22;37038;50.182;8.624;2023-06-05T15:22:32;34.10;1.00
51011;DHT22;37038;50.182;8.624;2023-06-05T15:25:26;33.90;1.00
51011;DHT22;37038;50.182;8.624;2023-06-05T15:28:17;33.70;1.00
51011;DHT22;37038;50.182;8.624;2023-06-05T15:31:10;33.60;1.00
51011;DHT22;37038;50.182;8.624;2023-06-05T15:34:00;33.30;1.00
51011;DHT22;37038;50.182;8.624;2023-06-05T15:36:52;33.10;1.00
51011;DHT22;37038;50.182;8.624;2023-06-05T15:39:43;33.90;1.00
51011;DHT22;37038;50.182;8.624;2023-06-05T15:42:37;34.10;1.00
51011;DHT22;37038;50.182;8.624;2023-06-05T15:45:28;33.90;1.00
51011;DHT22;37038;50.182;8.624;2023-06-05T15:48:20;33.70;1.00
51011;DHT22;37038;50.182;8.624;2023-06-05T15:51:11;33.50;1.00
51011;DHT22;37038;50.182;8.624;2023-06-05T15:54:02;33.70;1.00
51011;DHT22;37038;50.182;8.624;2023-06-05T15:57:12;33.70;1.00
51011;DHT22;37038;50.182;8.624;2023-06-05T16:00:02;33.20;1.00
51011;DHT22;37038;50.182;8.624;2023-06-05T16:02:52;32.90;1.00
51011;DHT22;37038;50.182;8.624;2023-06-05T16:05:45;32.70;1.00
51011;DHT22;37038;50.182;8.624;2023-06-05T16:08:42;33.30;1.00
51011;DHT22;37038;50.182;8.624;2023-06-05T16:11:36;32.80;1.00
51011;DHT22;37038;50.182;8.624;2023-06-05T16:14:26;32.90;1.00
51011;DHT22;37038;50.182;8.624;2023-06-05T16:17:19;32.80;1.00
51011;DHT22;37038;50.182;8.624;2023-06-05T16:20:11;32.60;1.00
51011;DHT22;37038;50.182;8.624;2023-06-05T16:23:01;32.50;1.00
51011;DHT22;37038;50.182;8.624;2023-06-05T16:25:51;31.90;1.00
51011;DHT22;37038;50.182;8.624;2023-06-05T16:28:45;31.90;1.00
51011;DHT22;37038;50.182;8.624;2023-06-05T16:31:41;31.40;1.00
51011;DHT22;37038;50.182;8.624;2023-06-05T16:34:33;31.30;1.00
51011;DHT22;37038;50.182;8.624;2023-06-05T16:37:23;30.70;1.00
51011;DHT22;37038;50.182;8.624;2023-06-05T16:40:17;30.70;1.00
51011;DHT22;37038;50.182;8.624;2023-06-05T16:43:07;31.20;1.00
51011;DHT22;37038;50.182;8.624;2023-06-05T16:45:57;30.40;1.00
51011;DHT22;37038;50.182;8.624;2023-06-05T16:48:46;30.40;1.00
51011;DHT22;37038;50.182;8.624;2023-06-05T16:51:36;30.10;1.00
51011;DHT22;37038;50.182;8.624;2023-06-05T16:54:28;30.00;1.00
51011;DHT22;37038;50.182;8.624;2023-06-05T16:57:18;30.00;1.00
51011;DHT22;37038;50.182;8.624;2023-06-05T17:00:07;30.10;1.00
51011;DHT22;37038;50.182;8.624;2023-06-05T17:02:59;30.50;1.00
51011;DHT22;37038;50.182;8.624;2023-06-05T17:05:49;30.40;1.00
51011;DHT22;37038;50.182;8.624;2023-06-05T17:08:41;30.00;1.00
51011;DHT22;37038;50.182;8.624;2023-06-05T17:11:31;29.70;1.00
51011;DHT22;37038;50.182;8.624;2023-06-05T17:14:21;29.70;1.00
51011;DHT22;37038;50.182;8.624;2023-06-05T17:17:11;29.40;1.00
51011;DHT22;37038;50.182;8.624;2023-06-05T17:20:02;29.50;1.00
51011;DHT22;37038;50.182;8.624;2023-06-05T17:22:52;29.60;1.00
51011;DHT22;37038;50.182;8.624;2023-06-05T17:25:42;29.60;1.00
51011;DHT22;37038;50.182;8.624;2023-06-05T17:28:32;29.00;1.00
51011;DHT22;37038;50.182;8.624;2023-06-05T17:31:22;29.30;1.00
51011;DHT22;37038;50.182;8.624;2023-06-05T17:34:12;29.00;1.00
51011;DHT22;37038;50.182;8.624;2023-06-05T17:37:04;28.60;1.00
51011;DHT22;37038;50.182;8.624;2023-06-05T17:39:55;28.40;1.00
51011;DHT22;37038;50.182;8.624;2023-06-05T17:42:45;28.20;1.00
51011;DHT22;37038;50.182;8.624;2023-06-05T17:45:36;27.90;1.00
51011;DHT22;37038;50.182;8.624;2023-06-05T17:48:27;28.10;1.00
51011;DHT22;37038;50.182;8.624;2023-06-05T17:51:16;28.00;1.00
51011;DHT22;37038;50.182;8.624;2023-06-05T17:54:07;28.10;1.00
51011;DHT22;37038;50.182;8.624;2023-06-05T17:56:57;28.10;1.00
51011;DHT22;37038;50.182;8.624;2023-06-05T17:59:47;28.00;1.00
51011;DHT22;37038;50.182;8.624;2023-06-05T18:02:37;27.30;1.00
51011;DHT22;37038;50.182;8.624;2023-06-05T18:05:27;27.30;1.00
51011;DHT22;37038;50.182;8.624;2023-06-05T18:08:19;27.50;1.00
51011;DHT22;37038;50.182;8.624;2023-06-05T18:11:09;27.60;1.00
51011;DHT22;37038;50.182;8.624;2023-06-05T18:14:00;27.70;1.00
51011;DHT22;37038;50.182;8.624;2023-06-05T18:16:54;27.50;1.00
51011;DHT22;37038;50.182;8.624;2023-06-05T18:19:45;27.00;1.00
51011;DHT22;37038;50.182;8.624;2023-06-05T18:22:38;26.90;1.00
51011;DHT22;37038;50.182;8.624;2023-06-05T18:25:28;26.70;1.00
51011;DHT22;37038;50.182;8.624;2023-06-05T18:28:20;26.30;1.00
51011;DHT22;37038;50.182;8.624;2023-06-05T18:31:10;26.20;1.00
51011;DHT22;37038;50.182;8.624;2023-06-05T18:34:00;26.00;1.00
51011;DHT22;37038;50.182;8.624;2023-06-05T18:36:51;25.70;1.00
51011;DHT22;37038;50.182;8.624;2023-06-05T18:39:41;25.70;1.00
51011;DHT22;37038;50.182;8.624;2023-06-05T18:42:30;25.50;1.00
51011;DHT22;37038;50.182;8.624;2023-06-05T18:45:20;25.40;1.00
51011;DHT22;37038;50.182;8.624;2023-06-05T18:48:12;25.40;1.00
51011;DHT22;37038;50.182;8.624;2023-06-05T18:51:02;25.20;1.00
51011;DHT22;37038;50.182;8.624;2023-06-05T18:53:55;24.90;1.00
51011;DHT22;37038;50.182;8.624;2023-06-05T18:56:44;24.80;1.00
51011;DHT22;37038;50.182;8.624;2023-06-05T18:59:37;24.50;1.00